sensor_id;sensor_type;location;lat;lon;timestamp;temperature;humidity
5394;DHT22;2720;52.396;10.064;2023-03-01T00:00:53;-3.80;99.90
5394;DHT22;2720;52.396;10.064;2023-03-01T00:03:20;-3.90;99.90
5394;DHT22;2720;52.396;10.064;2023-03-01T00:05:47;-3.70;99.90
5394;DHT22;2720;52.396;10.064;2023-03-01T00:08:14;-3.80;99.90
5394;DHT22;2720;52.396;10.064;2023-03-01T00:10:43;-3.90;99.90
5394;DHT22;2720;52.396;10.064;2023-03-01T00:13:09;-4.00;99.90
5394;DHT22;2720;52.396;10.064;2023-03-01T00:15:38;-3.90;99.90
5394;DHT22;2720;52.396;10.064;2023-03-01T00:18:07;-4.00;99.90
5394;DHT22;2720;52.396;10.064;2023-03-01T00:20:34;-3.90;99.90
5394;DHT22;2720;52.396;10.064;2023-03-01T00:23:01;-4.00;99.90
5394;DHT22;2720;52.396;10.064;2023-03-01T00:25:28;-3.80;99.90
5394;DHT22;2720;52.396;10.064;2023-03-01T00:27:56;-3.90;99.90
5394;DHT22;2720;52.396;10.064;2023-03-01T00:30:23;-3.80;99.90
5394;DHT22;2720;52.396;10.064;2023-03-01T00:32:50;-4.00;99.90
5394;DHT22;2720;52.396;10.064;2023-03-01T00:35:17;-4.10;99.90
5394;DHT22;2720;52.396;10.064;2023-03-01T00:37:44;-4.30;99.90
5394;DHT22;2720;52.396;10.064;2023-03-01T00:40:12;-4.20;99.90
5394;DHT22;2720;52.396;10.064;2023-03-01T00:42:41;-4.30;99.90
5394;DHT22;2720;52.396;10.064;2023-03-01T00:45:10;-3.90;99.90
5394;DHT22;2720;52.396;10.064;2023-03-01T00:47:38;-4.10;99.90
5394;DHT22;2720;52.396;10.064;2023-03-01T00:50:06;-3.80;99.90
5394;DHT22;2720;52.396;10.064;2023-03-01T00:52:33;-4.10;99.90
5394;DHT22;2720;52.396;10.064;2023-03-01T00:55:00;-4.10;99.90
5394;DHT22;2720;52.396;10.064;2023-03-01T00:57:27;-3.90;99.90
5394;DHT22;2720;52.396;10.064;2023-03-01T00:59:54;-4.00;99.90
5394;DHT22;2720;52.396;10.064;2023-03-01T01:02:22;-4.10;99.90
5394;DHT22;2720;52.396;10.064;2023-03-01T01:04:50;-4.20;99.90
5394;DHT22;2720;52.396;10.064;2023-03-01T01:07:17;-4.20;99.90
5394;DHT22;2720;52.396;10.064;2023-03-01T01:09:45;-4.30;99.90
5394;DHT22;2720;52.396;10.064;2023-03-01T01:12:12;-4.30;99.90
5394;DHT22;2720;52.396;10.064;2023-03-01T01:14:39;-4.50;99.90
5394;DHT22;2720;52.396;10.064;2023-03-01T01:17:06;-4.60;99.90
5394;DHT22;2720;52.396;10.064;2023-03-01T03:31:25;-5.70;99.90
5394;DHT22;2720;52.396;10.064;2023-03-01T03:33:54;-5.30;99.90
5394;DHT22;2720;52.396;10.064;2023-03-01T03:36:23;-5.30;99.90
5394;DHT22;2720;52.396;10.064;2023-03-01T03:41:17;-5.70;99.90
5394;DHT22;2720;52.396;10.064;2023-03-01T03:43:45;-5.40;99.90
5394;DHT22;2720;52.396;10.064;2023-03-01T03:46:12;-5.40;99.90
5394;DHT22;2720;52.396;10.064;2023-03-01T03:48:42;-5.30;99.90
5394;DHT22;2720;52.396;10.064;2023-03-01T03:51:12;-5.40;99.90
5394;DHT22;2720;52.396;10.064;2023-03-01T03:53:39;-5.30;99.90
5394;DHT22;2720;52.396;10.064;2023-03-01T03:56:07;-5.50;99.90
5394;DHT22;2720;52.396;10.064;2023-03-01T03:58:34;-5.40;99.90
5394;DHT22;2720;52.396;10.064;2023-03-01T04:01:01;-5.30;99.90
5394;DHT22;2720;52.396;10.064;2023-03-01T04:03:30;-5.30;99.90
5394;DHT22;2720;52.396;10.064;2023-03-01T04:05:57;-5.30;99.90
5394;DHT22;2720;52.396;10.064;2023-03-01T04:08:27;-5.40;99.90
5394;DHT22;2720;52.396;10.064;2023-03-01T04:10:58;-5.30;99.90
5394;DHT22;2720;52.396;10.064;2023-03-01T04:13:26;-5.50;99.90
5394;DHT22;2720;52.396;10.064;2023-03-01T04:15:54;-5.60;99.90
5394;DHT22;2720;52.396;10.064;2023-03-01T04:18:22;-5.40;99.90
5394;DHT22;2720;52.396;10.064;2023-03-01T04:20:50;-5.50;99.90
5394;DHT22;2720;52.396;10.064;2023-03-01T04:23:21;-5.20;99.90
5394;DHT22;2720;52.396;10.064;2023-03-01T04:25:50;-5.10;99.90
5394;DHT22;2720;52.396;10.064;2023-03-01T04:28:20;-5.20;99.90
5394;DHT22;2720;52.396;10.064;2023-03-01T04:30:47;-5.20;99.90
5394;DHT22;2720;52.396;10.064;2023-03-01T04:33:14;-5.20;99.90
5394;DHT22;2720;52.396;10.064;2023-03-01T04:35:41;-5.20;99.90
5394;DHT22;2720;52.396;10.064;2023-03-01T04:38:08;-5.10;99.90
5394;DHT22;2720;52.396;10.064;2023-03-01T04:40:36;-5.20;99.90
5394;DHT22;2720;52.396;10.064;2023-03-01T04:43:04;-5.30;99.90
5394;DHT22;2720;52.396;10.064;2023-03-01T04:48:01;-5.60;99.90
5394;DHT22;2720;52.396;10.064;2023-03-01T04:50:28;-5.50;99.90
5394;DHT22;2720;52.396;10.064;2023-03-01T04:52:55;-5.60;99.90
5394;DHT22;2720;52.396;10.064;2023-03-01T04:55:24;-5.70;99.90
5394;DHT22;2720;52.396;10.064;2023-03-01T04:57:52;-5.70;99.90
5394;DHT22;2720;52.396;10.064;2023-03-01T05:00:22;-5.80;99.90
5394;DHT22;2720;52.396;10.064;2023-03-01T05:02:50;-6.00;99.90
5394;DHT22;2720;52.396;10.064;2023-03-01T05:05:25;-5.80;99.90
5394;DHT22;2720;52.396;10.064;2023-03-01T05:07:57;-5.70;99.90
5394;DHT22;2720;52.396;10.064;2023-03-01T05:10:25;-5.90;99.90
5394;DHT22;2720;52.396;10.064;2023-03-01T05:12:54;-5.60;99.90
5394;DHT22;2720;52.396;10.064;2023-03-01T05:15:25;-5.60;99.90
5394;DHT22;2720;52.396;10.064;2023-03-01T05:17:52;-5.70;99.90
5394;DHT22;2720;52.396;10.064;2023-03-01T05:20:20;-5.60;99.90
5394;DHT22;2720;52.396;10.064;2023-03-01T05:22:49;-5.60;99.90
5394;DHT22;2720;52.396;10.064;2023-03-01T05:25:16;-5.80;99.90
5394;DHT22;2720;52.396;10.064;2023-03-01T05:27:43;-5.90;99.90
5394;DHT22;2720;52.396;10.064;2023-03-01T05:30:11;-5.90;99.90
5394;DHT22;2720;52.396;10.064;2023-03-01T05:32:45;-6.10;99.90
5394;DHT22;2720;52.396;10.064;2023-03-01T05:35:13;-5.90;99.90
5394;DHT22;2720;52.396;10.064;2023-03-01T05:37:41;-6.00;99.90
5394;DHT22;2720;52.396;10.064;2023-03-01T05:40:11;-5.90;99.90
5394;DHT22;2720;52.396;10.064;2023-03-01T05:42:45;-6.20;99.90
5394;DHT22;2720;52.396;10.064;2023-03-01T05:45:13;-6.10;99.90
5394;DHT22;2720;52.396;10.064;2023-03-01T05:47:43;-6.00;99.90
5394;DHT22;2720;52.396;10.064;2023-03-01T05:50:12;-6.10;99.90
5394;DHT22;2720;52.396;10.064;2023-03-01T05:52:39;-6.00;99.90
5394;DHT22;2720;52.396;10.064;2023-03-01T05:55:07;-6.10;99.90
5394;DHT22;2720;52.396;10.064;2023-03-01T05:57:34;-6.30;99.90
5394;DHT22;2720;52.396;10.064;2023-03-01T06:00:01;-6.10;99.90
5394;DHT22;2720;52.396;10.064;2023-03-01T06:02:28;-6.10;99.90
5394;DHT22;2720;52.396;10.064;2023-03-01T06:04:57;-6.10;99.90
5394;DHT22;2720;52.396;10.064;2023-03-01T06:07:24;-6.10;99.90
5394;DHT22;2720;52.396;10.064;2023-03-01T06:09:51;-6.10;99.90
5394;DHT22;2720;52.396;10.064;2023-03-01T06:12:18;-5.90;99.90
5394;DHT22;2720;52.396;10.064;2023-03-01T06:14:45;-5.90;99.90
5394;DHT22;2720;52.396;10.064;2023-03-01T06:17:13;-5.80;99.90
5394;DHT22;2720;52.396;10.064;2023-03-01T06:19:40;-5.60;99.90
5394;DHT22;2720;52.396;10.064;2023-03-01T06:22:09;-5.50;99.90
5394;DHT22;2720;52.396;10.064;2023-03-01T06:24:36;-5.50;99.90
5394;DHT22;2720;52.396;10.064;2023-03-01T06:27:03;-5.50;99.90
5394;DHT22;2720;52.396;10.064;2023-03-01T06:29:30;-5.50;99.90
5394;DHT22;2720;52.396;10.064;2023-03-01T06:31:57;-5.50;99.90
5394;DHT22;2720;52.396;10.064;2023-03-01T06:34:24;-5.50;99.90
5394;DHT22;2720;52.396;10.064;2023-03-01T06:36:51;-5.40;99.90
5394;DHT22;2720;52.396;10.064;2023-03-01T06:39:19;-5.40;99.90
5394;DHT22;2720;52.396;10.064;2023-03-01T06:41:46;-5.30;99.90
5394;DHT22;2720;52.396;10.064;2023-03-01T06:44:13;-5.20;99.90
5394;DHT22;2720;52.396;10.064;2023-03-01T06:46:40;-5.10;99.90
5394;DHT22;2720;52.396;10.064;2023-03-01T06:49:07;-5.10;99.90
5394;DHT22;2720;52.396;10.064;2023-03-01T06:51:35;-5.00;99.90
5394;DHT22;2720;52.396;10.064;2023-03-01T06:54:03;-4.90;99.90
5394;DHT22;2720;52.396;10.064;2023-03-01T06:56:32;-4.90;99.90
5394;DHT22;2720;52.396;10.064;2023-03-01T06:58:59;-4.50;99.90
5394;DHT22;2720;52.396;10.064;2023-03-01T07:01:26;-4.40;99.90
5394;DHT22;2720;52.396;10.064;2023-03-01T07:03:53;-4.20;99.90
5394;DHT22;2720;52.396;10.064;2023-03-01T07:06:20;-4.10;99.90
5394;DHT22;2720;52.396;10.064;2023-03-01T07:08:47;-4.20;99.90
5394;DHT22;2720;52.396;10.064;2023-03-01T07:11:14;-3.80;99.90
5394;DHT22;2720;52.396;10.064;2023-03-01T07:13:43;-3.60;99.90
5394;DHT22;2720;52.396;10.064;2023-03-01T07:16:10;-3.40;99.90
5394;DHT22;2720;52.396;10.064;2023-03-01T07:18:36;-3.30;99.90
5394;DHT22;2720;52.396;10.064;2023-03-01T07:21:05;-3.00;99.90
5394;DHT22;2720;52.396;10.064;2023-03-01T07:23:33;-3.10;99.90
5394;DHT22;2720;52.396;10.064;2023-03-01T07:26:00;-2.70;99.90
5394;DHT22;2720;52.396;10.064;2023-03-01T07:28:27;-2.50;99.90
5394;DHT22;2720;52.396;10.064;2023-03-01T07:31:00;-2.60;99.90
5394;DHT22;2720;52.396;10.064;2023-03-01T07:33:28;-2.40;99.90
5394;DHT22;2720;52.396;10.064;2023-03-01T07:35:58;-2.30;99.90
5394;DHT22;2720;52.396;10.064;2023-03-01T07:38:25;-2.10;99.90
5394;DHT22;2720;52.396;10.064;2023-03-01T07:40:52;-2.00;99.90
5394;DHT22;2720;52.396;10.064;2023-03-01T07:43:19;-1.90;99.90
5394;DHT22;2720;52.396;10.064;2023-03-01T07:45:46;-1.70;99.90
5394;DHT22;2720;52.396;10.064;2023-03-01T07:48:15;-1.70;99.90
5394;DHT22;2720;52.396;10.064;2023-03-01T07:50:42;-1.70;99.90
5394;DHT22;2720;52.396;10.064;2023-03-01T07:53:09;-1.60;99.90
5394;DHT22;2720;52.396;10.064;2023-03-01T07:55:36;-1.60;99.90
5394;DHT22;2720;52.396;10.064;2023-03-01T07:58:04;-1.50;99.90
5394;DHT22;2720;52.396;10.064;2023-03-01T08:00:31;-1.40;99.90
5394;DHT22;2720;52.396;10.064;2023-03-01T08:02:59;-1.40;99.90
5394;DHT22;2720;52.396;10.064;2023-03-01T08:05:28;-1.20;99.90
5394;DHT22;2720;52.396;10.064;2023-03-01T08:07:55;-1.00;99.90
5394;DHT22;2720;52.396;10.064;2023-03-01T08:10:22;-0.90;99.90
5394;DHT22;2720;52.396;10.064;2023-03-01T08:12:51;-0.70;99.90
5394;DHT22;2720;52.396;10.064;2023-03-01T08:15:18;-0.50;99.90
5394;DHT22;2720;52.396;10.064;2023-03-01T08:17:45;-0.30;99.90
5394;DHT22;2720;52.396;10.064;2023-03-01T08:20:12;-0.10;99.90
5394;DHT22;2720;52.396;10.064;2023-03-01T08:22:40;0.00;99.90
5394;DHT22;2720;52.396;10.064;2023-03-01T08:25:08;0.30;99.90
5394;DHT22;2720;52.396;10.064;2023-03-01T08:30:03;0.70;99.90
5394;DHT22;2720;52.396;10.064;2023-03-01T08:32:32;1.00;99.90
5394;DHT22;2720;52.396;10.064;2023-03-01T08:35:01;1.00;99.90
5394;DHT22;2720;52.396;10.064;2023-03-01T08:37:28;1.00;99.90
5394;DHT22;2720;52.396;10.064;2023-03-01T08:39:57;1.30;99.90
5394;DHT22;2720;52.396;10.064;2023-03-01T08:42:25;1.40;99.90
5394;DHT22;2720;52.396;10.064;2023-03-01T08:44:52;1.50;99.90
5394;DHT22;2720;52.396;10.064;2023-03-01T08:47:19;1.50;99.90
5394;DHT22;2720;52.396;10.064;2023-03-01T08:49:46;1.60;99.90
5394;DHT22;2720;52.396;10.064;2023-03-01T08:52:13;1.50;99.90
5394;DHT22;2720;52.396;10.064;2023-03-01T08:54:40;1.70;99.90
5394;DHT22;2720;52.396;10.064;2023-03-01T08:57:08;1.60;99.90
5394;DHT22;2720;52.396;10.064;2023-03-01T08:59:35;1.70;99.90
5394;DHT22;2720;52.396;10.064;2023-03-01T09:02:03;1.80;99.90
5394;DHT22;2720;52.396;10.064;2023-03-01T09:04:30;1.80;99.90
5394;DHT22;2720;52.396;10.064;2023-03-01T09:06:57;1.90;99.90
5394;DHT22;2720;52.396;10.064;2023-03-01T09:09:24;1.90;99.90
5394;DHT22;2720;52.396;10.064;2023-03-01T09:11:51;1.90;99.90
5394;DHT22;2720;52.396;10.064;2023-03-01T09:14:20;1.90;99.90
5394;DHT22;2720;52.396;10.064;2023-03-01T09:16:47;2.10;99.90
5394;DHT22;2720;52.396;10.064;2023-03-01T09:19:14;2.20;99.90
5394;DHT22;2720;52.396;10.064;2023-03-01T09:21:41;2.30;99.90
5394;DHT22;2720;52.396;10.064;2023-03-01T09:24:19;2.50;99.90
5394;DHT22;2720;52.396;10.064;2023-03-01T09:26:47;2.50;99.90
5394;DHT22;2720;52.396;10.064;2023-03-01T09:29:14;2.60;99.90
5394;DHT22;2720;52.396;10.064;2023-03-01T09:31:43;2.60;99.90
5394;DHT22;2720;52.396;10.064;2023-03-01T09:34:10;2.60;99.90
5394;DHT22;2720;52.396;10.064;2023-03-01T09:36:38;2.70;99.90
5394;DHT22;2720;52.396;10.064;2023-03-01T09:39:05;2.70;99.90
5394;DHT22;2720;52.396;10.064;2023-03-01T09:41:52;2.80;99.90
5394;DHT22;2720;52.396;10.064;2023-03-01T09:44:28;2.80;99.90
5394;DHT22;2720;52.396;10.064;2023-03-01T09:46:59;2.90;99.90
5394;DHT22;2720;52.396;10.064;2023-03-01T09:49:28;2.90;99.90
5394;DHT22;2720;52.396;10.064;2023-03-01T09:52:00;3.00;99.90
5394;DHT22;2720;52.396;10.064;2023-03-01T09:54:27;3.00;99.90
5394;DHT22;2720;52.396;10.064;2023-03-01T09:57:04;3.10;99.90
5394;DHT22;2720;52.396;10.064;2023-03-01T09:59:40;3.20;99.90
5394;DHT22;2720;52.396;10.064;2023-03-01T10:02:23;3.20;99.90
5394;DHT22;2720;52.396;10.064;2023-03-01T10:04:54;3.30;99.90
5394;DHT22;2720;52.396;10.064;2023-03-01T10:09:53;3.40;99.90
5394;DHT22;2720;52.396;10.064;2023-03-01T10:14:55;3.50;99.90
5394;DHT22;2720;52.396;10.064;2023-03-01T10:17:30;3.70;99.90
5394;DHT22;2720;52.396;10.064;2023-03-01T10:20:14;3.70;99.90
5394;DHT22;2720;52.396;10.064;2023-03-01T10:22:42;3.70;99.90
5394;DHT22;2720;52.396;10.064;2023-03-01T10:25:14;3.80;99.90
5394;DHT22;2720;52.396;10.064;2023-03-01T10:27:49;3.90;99.90
5394;DHT22;2720;52.396;10.064;2023-03-01T10:30:20;3.90;99.90
5394;DHT22;2720;52.396;10.064;2023-03-01T10:32:51;4.10;99.90
5394;DHT22;2720;52.396;10.064;2023-03-01T10:35:22;4.10;99.90
5394;DHT22;2720;52.396;10.064;2023-03-01T10:38:03;4.10;99.90
5394;DHT22;2720;52.396;10.064;2023-03-01T10:40:30;4.50;99.90
5394;DHT22;2720;52.396;10.064;2023-03-01T10:42:59;4.50;99.90
5394;DHT22;2720;52.396;10.064;2023-03-01T10:45:32;4.50;99.90
5394;DHT22;2720;52.396;10.064;2023-03-01T10:48:13;4.60;99.90
5394;DHT22;2720;52.396;10.064;2023-03-01T10:50:41;4.60;99.90
5394;DHT22;2720;52.396;10.064;2023-03-01T10:53:24;4.80;99.90
5394;DHT22;2720;52.396;10.064;2023-03-01T10:56:04;4.80;99.90
5394;DHT22;2720;52.396;10.064;2023-03-01T10:58:33;4.80;99.90
5394;DHT22;2720;52.396;10.064;2023-03-01T11:01:02;4.80;99.90
5394;DHT22;2720;52.396;10.064;2023-03-01T11:03:32;4.80;99.90
5394;DHT22;2720;52.396;10.064;2023-03-01T11:06:04;4.90;99.90
5394;DHT22;2720;52.396;10.064;2023-03-01T11:08:34;5.00;99.90
5394;DHT22;2720;52.396;10.064;2023-03-01T11:11:07;5.10;99.90
5394;DHT22;2720;52.396;10.064;2023-03-01T11:13:37;5.10;99.90
5394;DHT22;2720;52.396;10.064;2023-03-01T11:16:07;5.30;99.90
5394;DHT22;2720;52.396;10.064;2023-03-01T11:18:38;5.40;99.90
5394;DHT22;2720;52.396;10.064;2023-03-01T11:21:06;5.40;99.90
5394;DHT22;2720;52.396;10.064;2023-03-01T11:23:34;5.40;99.90
5394;DHT22;2720;52.396;10.064;2023-03-01T11:26:07;5.50;99.90
5394;DHT22;2720;52.396;10.064;2023-03-01T11:28:37;5.50;99.90
5394;DHT22;2720;52.396;10.064;2023-03-01T11:31:07;5.40;99.90
5394;DHT22;2720;52.396;10.064;2023-03-01T11:33:42;5.50;99.90
5394;DHT22;2720;52.396;10.064;2023-03-01T11:36:27;5.70;99.90
5394;DHT22;2720;52.396;10.064;2023-03-01T11:38:55;5.70;99.90
5394;DHT22;2720;52.396;10.064;2023-03-01T11:41:26;5.80;99.90
5394;DHT22;2720;52.396;10.064;2023-03-01T11:43:58;5.90;99.90
5394;DHT22;2720;52.396;10.064;2023-03-01T11:46:44;6.00;99.90
5394;DHT22;2720;52.396;10.064;2023-03-01T11:49:38;6.30;99.90
5394;DHT22;2720;52.396;10.064;2023-03-01T11:52:15;6.40;99.90
5394;DHT22;2720;52.396;10.064;2023-03-01T11:54:53;7.00;99.90
5394;DHT22;2720;52.396;10.064;2023-03-01T11:57:43;6.90;99.90
5394;DHT22;2720;52.396;10.064;2023-03-01T12:00:33;7.00;99.90
5394;DHT22;2720;52.396;10.064;2023-03-01T12:03:30;7.10;99.90
5394;DHT22;2720;52.396;10.064;2023-03-01T12:06:16;7.10;99.90
5394;DHT22;2720;52.396;10.064;2023-03-01T12:08:55;7.40;99.90
5394;DHT22;2720;52.396;10.064;2023-03-01T12:11:39;7.60;99.90
5394;DHT22;2720;52.396;10.064;2023-03-01T12:14:28;7.70;99.90
5394;DHT22;2720;52.396;10.064;2023-03-01T12:17:17;7.60;99.90
5394;DHT22;2720;52.396;10.064;2023-03-01T12:20:06;7.50;99.90
5394;DHT22;2720;52.396;10.064;2023-03-01T12:22:46;7.50;99.90
5394;DHT22;2720;52.396;10.064;2023-03-01T12:25:22;7.60;99.90
5394;DHT22;2720;52.396;10.064;2023-03-01T12:31:07;8.20;99.90
5394;DHT22;2720;52.396;10.064;2023-03-01T12:33:45;8.10;99.90
5394;DHT22;2720;52.396;10.064;2023-03-01T12:36:40;8.00;99.90
5394;DHT22;2720;52.396;10.064;2023-03-01T12:39:29;7.80;99.90
5394;DHT22;2720;52.396;10.064;2023-03-01T12:42:04;7.70;99.90
5394;DHT22;2720;52.396;10.064;2023-03-01T12:44:52;7.70;99.90
5394;DHT22;2720;52.396;10.064;2023-03-01T12:47:37;8.00;99.90
5394;DHT22;2720;52.396;10.064;2023-03-01T12:50:14;8.20;99.90
5394;DHT22;2720;52.396;10.064;2023-03-01T12:52:47;8.20;99.90
5394;DHT22;2720;52.396;10.064;2023-03-01T12:55:25;8.10;99.90
5394;DHT22;2720;52.396;10.064;2023-03-01T12:58:01;8.20;99.90
5394;DHT22;2720;52.396;10.064;2023-03-01T13:00:35;8.20;99.90
5394;DHT22;2720;52.396;10.064;2023-03-01T13:03:12;8.10;99.90
5394;DHT22;2720;52.396;10.064;2023-03-01T13:05:49;8.20;99.90
5394;DHT22;2720;52.396;10.064;2023-03-01T13:08:22;8.20;99.90
5394;DHT22;2720;52.396;10.064;2023-03-01T13:10:58;8.20;99.90
5394;DHT22;2720;52.396;10.064;2023-03-01T13:13:27;8.20;99.90
5394;DHT22;2720;52.396;10.064;2023-03-01T13:15:55;8.00;99.90
5394;DHT22;2720;52.396;10.064;2023-03-01T13:18:40;8.10;99.90
5394;DHT22;2720;52.396;10.064;2023-03-01T13:21:07;8.10;99.90
5394;DHT22;2720;52.396;10.064;2023-03-01T13:23:37;8.30;99.90
5394;DHT22;2720;52.396;10.064;2023-03-01T13:26:12;8.40;99.90
5394;DHT22;2720;52.396;10.064;2023-03-01T13:28:45;8.40;99.90
5394;DHT22;2720;52.396;10.064;2023-03-01T13:34:43;8.40;99.90
5394;DHT22;2720;52.396;10.064;2023-03-01T13:37:19;8.40;99.90
5394;DHT22;2720;52.396;10.064;2023-03-01T13:39:46;8.30;99.90
5394;DHT22;2720;52.396;10.064;2023-03-01T13:42:37;8.50;99.90
5394;DHT22;2720;52.396;10.064;2023-03-01T13:45:16;8.70;99.90
5394;DHT22;2720;52.396;10.064;2023-03-01T13:47:49;8.80;99.90
5394;DHT22;2720;52.396;10.064;2023-03-01T13:50:20;8.80;99.90
5394;DHT22;2720;52.396;10.064;2023-03-01T13:52:52;8.90;99.90
5394;DHT22;2720;52.396;10.064;2023-03-01T13:55:22;8.90;99.90
5394;DHT22;2720;52.396;10.064;2023-03-01T13:57:55;8.70;99.90
5394;DHT22;2720;52.396;10.064;2023-03-01T14:00:34;8.60;99.90
5394;DHT22;2720;52.396;10.064;2023-03-01T14:03:09;8.60;99.90
5394;DHT22;2720;52.396;10.064;2023-03-01T14:05:37;8.60;99.90
5394;DHT22;2720;52.396;10.064;2023-03-01T14:08:13;8.50;99.90
5394;DHT22;2720;52.396;10.064;2023-03-01T14:10:58;8.40;99.90
5394;DHT22;2720;52.396;10.064;2023-03-01T14:13:40;8.40;99.90
5394;DHT22;2720;52.396;10.064;2023-03-01T14:16:24;8.30;99.90
5394;DHT22;2720;52.396;10.064;2023-03-01T14:19:05;8.30;99.90
5394;DHT22;2720;52.396;10.064;2023-03-01T14:21:34;8.10;99.90
5394;DHT22;2720;52.396;10.064;2023-03-01T14:24:02;8.00;99.90
5394;DHT22;2720;52.396;10.064;2023-03-01T14:26:31;7.90;99.90
5394;DHT22;2720;52.396;10.064;2023-03-01T14:29:01;7.80;99.90
5394;DHT22;2720;52.396;10.064;2023-03-01T14:31:37;7.80;99.90
5394;DHT22;2720;52.396;10.064;2023-03-01T14:34:04;8.10;99.90
5394;DHT22;2720;52.396;10.064;2023-03-01T14:36:32;7.90;99.90
5394;DHT22;2720;52.396;10.064;2023-03-01T14:39:00;7.80;99.90
5394;DHT22;2720;52.396;10.064;2023-03-01T14:41:33;7.90;99.90
5394;DHT22;2720;52.396;10.064;2023-03-01T14:44:06;7.80;99.90
5394;DHT22;2720;52.396;10.064;2023-03-01T14:46:36;7.70;99.90
5394;DHT22;2720;52.396;10.064;2023-03-01T14:49:04;7.70;99.90
5394;DHT22;2720;52.396;10.064;2023-03-01T14:51:36;7.70;99.90
5394;DHT22;2720;52.396;10.064;2023-03-01T14:54:10;7.70;99.90
5394;DHT22;2720;52.396;10.064;2023-03-01T14:56:46;7.60;99.90
5394;DHT22;2720;52.396;10.064;2023-03-01T14:59:14;7.50;99.90
5394;DHT22;2720;52.396;10.064;2023-03-01T15:01:42;7.50;99.90
5394;DHT22;2720;52.396;10.064;2023-03-01T15:04:12;7.50;99.90
5394;DHT22;2720;52.396;10.064;2023-03-01T15:06:39;7.60;99.90
5394;DHT22;2720;52.396;10.064;2023-03-01T15:09:13;7.50;99.90
5394;DHT22;2720;52.396;10.064;2023-03-01T15:11:41;7.40;99.90
5394;DHT22;2720;52.396;10.064;2023-03-01T15:14:36;7.40;99.90
5394;DHT22;2720;52.396;10.064;2023-03-01T15:17:05;7.50;99.90
5394;DHT22;2720;52.396;10.064;2023-03-01T15:19:32;7.40;99.90
5394;DHT22;2720;52.396;10.064;2023-03-01T15:21:59;7.40;99.90
5394;DHT22;2720;52.396;10.064;2023-03-01T15:24:37;7.40;99.90
5394;DHT22;2720;52.396;10.064;2023-03-01T15:27:05;7.40;99.90
5394;DHT22;2720;52.396;10.064;2023-03-01T15:29:34;7.40;99.90
5394;DHT22;2720;52.396;10.064;2023-03-01T15:32:25;7.40;99.90
5394;DHT22;2720;52.396;10.064;2023-03-01T15:34:52;7.40;99.90
5394;DHT22;2720;52.396;10.064;2023-03-01T15:37:36;7.30;99.90
5394;DHT22;2720;52.396;10.064;2023-03-01T15:40:19;7.30;99.90
5394;DHT22;2720;52.396;10.064;2023-03-01T15:42:46;7.20;99.90
5394;DHT22;2720;52.396;10.064;2023-03-01T15:45:23;7.30;99.90
5394;DHT22;2720;52.396;10.064;2023-03-01T15:47:54;7.40;99.90
5394;DHT22;2720;52.396;10.064;2023-03-01T15:50:26;7.30;99.90
5394;DHT22;2720;52.396;10.064;2023-03-01T15:52:54;6.70;99.90
5394;DHT22;2720;52.396;10.064;2023-03-01T15:55:23;7.40;99.90
5394;DHT22;2720;52.396;10.064;2023-03-01T15:57:58;7.40;99.90
5394;DHT22;2720;52.396;10.064;2023-03-01T16:00:28;7.30;99.90
5394;DHT22;2720;52.396;10.064;2023-03-01T16:02:56;7.10;99.90
5394;DHT22;2720;52.396;10.064;2023-03-01T16:05:25;7.10;99.90
5394;DHT22;2720;52.396;10.064;2023-03-01T16:07:53;7.00;99.90
5394;DHT22;2720;52.396;10.064;2023-03-01T16:10:20;7.00;99.90
5394;DHT22;2720;52.396;10.064;2023-03-01T16:12:48;7.00;99.90
5394;DHT22;2720;52.396;10.064;2023-03-01T16:15:19;6.90;99.90
5394;DHT22;2720;52.396;10.064;2023-03-01T16:17:48;6.80;99.90
5394;DHT22;2720;52.396;10.064;2023-03-01T16:20:16;6.80;99.90
5394;DHT22;2720;52.396;10.064;2023-03-01T16:22:43;6.60;99.90
5394;DHT22;2720;52.396;10.064;2023-03-01T16:25:11;6.60;99.90
5394;DHT22;2720;52.396;10.064;2023-03-01T16:27:38;6.40;99.90
5394;DHT22;2720;52.396;10.064;2023-03-01T16:30:06;6.20;99.90
5394;DHT22;2720;52.396;10.064;2023-03-01T16:32:37;6.00;99.90
5394;DHT22;2720;52.396;10.064;2023-03-01T16:35:06;5.90;99.90
5394;DHT22;2720;52.396;10.064;2023-03-01T16:37:35;5.70;99.90
5394;DHT22;2720;52.396;10.064;2023-03-01T16:40:03;5.50;99.90
5394;DHT22;2720;52.396;10.064;2023-03-01T16:42:33;5.40;99.90
5394;DHT22;2720;52.396;10.064;2023-03-01T16:45:00;5.10;99.90
5394;DHT22;2720;52.396;10.064;2023-03-01T16:47:27;5.10;99.90
5394;DHT22;2720;52.396;10.064;2023-03-01T16:49:54;4.90;99.90
5394;DHT22;2720;52.396;10.064;2023-03-01T16:52:23;4.70;99.90
5394;DHT22;2720;52.396;10.064;2023-03-01T16:54:49;4.50;99.90
5394;DHT22;2720;52.396;10.064;2023-03-01T16:57:16;4.40;99.90
5394;DHT22;2720;52.396;10.064;2023-03-01T16:59:43;4.20;99.90
5394;DHT22;2720;52.396;10.064;2023-03-01T17:02:12;4.10;99.90
5394;DHT22;2720;52.396;10.064;2023-03-01T17:04:40;3.80;99.90
5394;DHT22;2720;52.396;10.064;2023-03-01T17:07:07;3.60;99.90
5394;DHT22;2720;52.396;10.064;2023-03-01T17:09:36;3.40;99.90
5394;DHT22;2720;52.396;10.064;2023-03-01T17:12:05;3.30;99.90
5394;DHT22;2720;52.396;10.064;2023-03-01T17:14:33;3.20;99.90
5394;DHT22;2720;52.396;10.064;2023-03-01T17:17:00;3.00;99.90
5394;DHT22;2720;52.396;10.064;2023-03-01T17:19:28;2.90;99.90
5394;DHT22;2720;52.396;10.064;2023-03-01T17:21:55;2.90;99.90
5394;DHT22;2720;52.396;10.064;2023-03-01T17:24:22;2.80;99.90
5394;DHT22;2720;52.396;10.064;2023-03-01T17:26:50;2.60;99.90
5394;DHT22;2720;52.396;10.064;2023-03-01T17:29:17;2.50;99.90
5394;DHT22;2720;52.396;10.064;2023-03-01T17:31:44;2.20;99.90
5394;DHT22;2720;52.396;10.064;2023-03-01T17:34:11;2.00;99.90
5394;DHT22;2720;52.396;10.064;2023-03-01T17:36:38;2.10;99.90
5394;DHT22;2720;52.396;10.064;2023-03-01T17:39:08;1.90;99.90
5394;DHT22;2720;52.396;10.064;2023-03-01T17:41:35;1.80;99.90
5394;DHT22;2720;52.396;10.064;2023-03-01T17:44:04;1.80;99.90
5394;DHT22;2720;52.396;10.064;2023-03-01T17:46:31;1.60;99.90
5394;DHT22;2720;52.396;10.064;2023-03-01T17:48:58;1.50;99.90
5394;DHT22;2720;52.396;10.064;2023-03-01T17:51:25;1.40;99.90
5394;DHT22;2720;52.396;10.064;2023-03-01T17:53:52;1.30;99.90
5394;DHT22;2720;52.396;10.064;2023-03-01T17:56:19;1.30;99.90
5394;DHT22;2720;52.396;10.064;2023-03-01T17:58:46;1.10;99.90
5394;DHT22;2720;52.396;10.064;2023-03-01T18:01:16;1.10;99.90
5394;DHT22;2720;52.396;10.064;2023-03-01T18:03:43;1.10;99.90
5394;DHT22;2720;52.396;10.064;2023-03-01T18:06:12;0.90;99.90
5394;DHT22;2720;52.396;10.064;2023-03-01T18:08:40;0.80;99.90
5394;DHT22;2720;52.396;10.064;2023-03-01T18:11:07;0.90;99.90
5394;DHT22;2720;52.396;10.064;2023-03-01T18:13:34;0.90;99.90
5394;DHT22;2720;52.396;10.064;2023-03-01T18:16:04;1.20;99.90
5394;DHT22;2720;52.396;10.064;2023-03-01T18:18:33;1.40;99.90
5394;DHT22;2720;52.396;10.064;2023-03-01T18:21:00;1.70;99.90
5394;DHT22;2720;52.396;10.064;2023-03-01T18:23:28;1.80;99.90
5394;DHT22;2720;52.396;10.064;2023-03-01T18:25:57;1.80;99.90
5394;DHT22;2720;52.396;10.064;2023-03-01T18:28:25;1.80;99.90
5394;DHT22;2720;52.396;10.064;2023-03-01T18:30:55;1.80;99.90
5394;DHT22;2720;52.396;10.064;2023-03-01T18:33:22;1.70;99.90
5394;DHT22;2720;52.396;10.064;2023-03-01T18:35:51;1.50;99.90
5394;DHT22;2720;52.396;10.064;2023-03-01T18:38:18;1.40;99.90
5394;DHT22;2720;52.396;10.064;2023-03-01T18:40:45;1.10;99.90
5394;DHT22;2720;52.396;10.064;2023-03-01T18:43:12;0.90;99.90
5394;DHT22;2720;52.396;10.064;2023-03-01T18:45:39;0.70;99.90